createdAt,value
2019-02-02T00:00:44.211Z,97354.56
2019-02-02T00:01:47.953Z,97356.44
2019-02-02T00:02:53.999Z,97360.28
2019-02-02T00:03:57.634Z,97361.50
2019-02-02T00:05:01.268Z,97354.94
2019-02-02T00:06:05.497Z,97360.88
2019-02-02T00:07:09.129Z,97360.16
2019-02-02T00:08:12.825Z,97355.53
2019-02-02T00:09:16.828Z,97353.73
2019-02-02T00:10:20.464Z,97359.67
2019-02-02T00:11:24.092Z,97354.45
2019-02-02T00:12:27.723Z,97355.65
2019-02-02T00:13:31.458Z,97362.33
2019-02-02T00:14:35.097Z,97360.66
2019-02-02T00:15:38.730Z,97365.22
2019-02-02T00:16:42.786Z,97369.68
2019-02-02T00:17:46.415Z,97368.09
2019-02-02T00:18:50.088Z,97377.45
2019-02-02T00:19:55.765Z,97367.35
2019-02-02T00:20:59.142Z,97377.33
2019-02-02T00:22:02.763Z,97378.54
2019-02-02T00:23:06.399Z,97378.21
2019-02-02T00:24:10.150Z,97380.47
2019-02-02T00:25:14.083Z,97379.20
2019-02-02T00:26:18.071Z,97376.11
2019-02-02T00:27:21.702Z,97372.81
2019-02-02T00:28:25.330Z,97378.16
2019-02-02T00:29:28.998Z,97379.37
2019-02-02T00:30:32.703Z,97379.92
2019-02-02T00:31:36.348Z,97385.47
2019-02-02T00:32:39.979Z,97381.67
2019-02-02T00:33:43.611Z,97380.47
2019-02-02T00:34:47.280Z,97379.37
2019-02-02T00:35:50.935Z,97383.13
2019-02-02T00:36:54.545Z,97385.64
2019-02-02T00:37:58.171Z,97387.02
2019-02-02T00:39:01.807Z,97385.09
2019-02-02T00:40:11.055Z,97383.75
2019-02-02T00:41:14.750Z,97379.80
2019-02-02T00:42:18.429Z,97376.95
2019-02-02T00:43:22.063Z,97376.70
2019-02-02T00:44:25.694Z,97376.33
2019-02-02T00:45:29.371Z,97372.99
2019-02-02T00:46:33.354Z,97378.80
2019-02-02T00:47:36.982Z,97377.45
2019-02-02T00:48:40.617Z,97374.03
2019-02-02T00:49:44.257Z,97373.91
2019-02-02T00:50:47.897Z,97368.89
2019-02-02T00:51:51.540Z,97370.69
2019-02-02T00:52:55.167Z,97372.48
2019-02-02T00:53:58.806Z,97370.53
2019-02-02T00:55:02.442Z,97371.73
2019-02-02T00:56:06.318Z,97369.94
2019-02-02T00:57:10.291Z,97372.35
2019-02-02T00:58:13.853Z,97367.77
2019-02-02T00:59:17.491Z,97368.98
2019-02-02T01:00:23.755Z,97363.98
2019-02-02T01:01:27.829Z,97368.48
2019-02-02T01:02:31.461Z,97367.77
2019-02-02T01:03:35.297Z,97363.34
2019-02-02T01:04:38.935Z,97360.21
2019-02-02T01:05:42.949Z,97357.98
2019-02-02T01:06:46.638Z,97355.31
2019-02-02T01:07:50.661Z,97354.41
2019-02-02T01:08:54.251Z,97352.52
2019-02-02T01:09:57.882Z,97343.87
2019-02-02T01:11:01.591Z,97347.70
2019-02-02T01:12:05.360Z,97345.66
2019-02-02T01:13:09.019Z,97347.59
2019-02-02T01:14:12.651Z,97351.52
2019-02-02T01:15:17.180Z,97352.64
2019-02-02T01:16:20.817Z,97348.75
2019-02-02T01:17:24.484Z,97357.35
2019-02-02T01:18:28.499Z,97347.05
2019-02-02T01:19:32.133Z,97347.77
2019-02-02T01:20:35.766Z,97347.30
2019-02-02T01:21:39.400Z,97349.65
2019-02-02T01:22:43.165Z,97348.43
2019-02-02T01:23:46.798Z,97345.95
2019-02-02T01:24:50.442Z,97349.64
2019-02-02T01:25:54.181Z,97344.47
2019-02-02T01:26:57.825Z,97336.34
2019-02-02T01:28:05.495Z,97339.01
2019-02-02T01:29:06.970Z,97342.90
2019-02-02T01:30:16.496Z,97335.02
2019-02-02T01:31:20.089Z,97339.41
2019-02-02T01:32:23.723Z,97333.81
2019-02-02T01:33:27.395Z,97336.77
2019-02-02T01:34:31.028Z,97334.53
2019-02-02T01:35:34.668Z,97338.41
2019-02-02T01:36:38.303Z,97328.20
2019-02-02T01:37:41.942Z,97342.30
2019-02-02T01:38:45.641Z,97336.31
2019-02-02T01:39:49.278Z,97342.09
2019-02-02T01:40:52.915Z,97336.21
2019-02-02T01:41:56.553Z,97337.05
2019-02-02T01:43:00.236Z,97338.23
2019-02-02T01:44:03.901Z,97341.63
2019-02-02T01:45:12.999Z,97338.70
2019-02-02T01:46:16.741Z,97342.49
2019-02-02T01:47:20.381Z,97338.23
2019-02-02T01:48:24.009Z,97335.45
2019-02-02T01:49:27.678Z,97331.20
2019-02-02T01:50:31.312Z,97335.57
2019-02-02T01:51:34.938Z,97327.67
2019-02-02T01:52:38.575Z,97332.54
2019-02-02T01:53:42.198Z,97329.27
2019-02-02T01:54:45.875Z,97330.34
2019-02-02T01:55:49.848Z,97327.78
2019-02-02T01:56:53.486Z,97330.56
2019-02-02T01:57:57.132Z,97332.87
2019-02-02T01:59:01.083Z,97325.12
2019-02-02T02:00:07.388Z,97319.95
2019-02-02T02:01:11.022Z,97321.22
2019-02-02T02:02:14.803Z,97313.22
2019-02-02T02:03:18.437Z,97313.11
2019-02-02T02:04:22.140Z,97313.22
2019-02-02T02:05:25.892Z,97307.88
2019-02-02T02:06:29.525Z,97310.01
2019-02-02T02:07:33.161Z,97310.30
2019-02-02T02:08:36.820Z,97309.50
2019-02-02T02:09:40.456Z,97310.41
2019-02-02T02:10:44.131Z,97308.35
2019-02-02T02:11:47.769Z,97312.17
2019-02-02T02:12:51.410Z,97302.05
2019-02-02T02:13:55.053Z,97304.70
2019-02-02T02:14:58.676Z,97302.87
2019-02-02T02:16:02.850Z,97303.70
2019-02-02T02:17:06.451Z,97306.36
2019-02-02T02:18:10.187Z,97310.36
2019-02-02T02:19:13.934Z,97306.69
2019-02-02T02:20:19.667Z,97304.17
2019-02-02T02:21:23.416Z,97312.56
2019-02-02T02:22:27.060Z,97309.25
2019-02-02T02:23:30.756Z,97307.34
2019-02-02T02:24:34.396Z,97310.25
2019-02-02T02:25:38.031Z,97310.50
2019-02-02T02:26:41.743Z,97307.00
2019-02-02T02:27:45.655Z,97308.78
2019-02-02T02:28:49.350Z,97307.98
2019-02-02T02:29:52.991Z,97309.06
2019-02-02T02:30:56.630Z,97310.56
2019-02-02T02:32:00.306Z,97306.09
2019-02-02T02:33:03.938Z,97306.41
2019-02-02T02:34:07.649Z,97309.18
2019-02-02T02:35:11.849Z,97306.55
2019-02-02T02:36:15.473Z,97310.36
2019-02-02T02:37:19.166Z,97305.72
2019-02-02T02:38:22.794Z,97306.89
2019-02-02T02:39:26.424Z,97303.65
2019-02-02T02:40:30.081Z,97309.91
2019-02-02T02:41:33.804Z,97305.91
2019-02-02T02:42:37.487Z,97311.75
2019-02-02T02:43:41.265Z,97306.02
2019-02-02T02:44:44.829Z,97306.30
2019-02-02T02:45:48.528Z,97303.16
2019-02-02T02:46:52.258Z,97303.39
2019-02-02T02:47:55.927Z,97298.91
2019-02-02T02:48:59.890Z,97304.72
2019-02-02T02:50:04.340Z,97300.91
2019-02-02T02:51:07.978Z,97295.93
2019-02-02T02:52:11.628Z,97290.57
2019-02-02T02:53:15.303Z,97289.52
2019-02-02T02:54:18.928Z,97283.94
2019-02-02T02:55:22.633Z,97291.30
2019-02-02T02:56:26.272Z,97292.73
2019-02-02T02:57:30.252Z,97292.41
2019-02-02T02:58:41.709Z,97292.44
2019-02-02T02:59:39.591Z,97289.43
2019-02-02T03:00:43.226Z,97290.41
2019-02-02T03:01:47.188Z,97290.13
2019-02-02T03:02:50.991Z,97290.34
2019-02-02T03:03:54.969Z,97291.43
2019-02-02T03:04:58.607Z,97284.30
2019-02-02T03:06:02.246Z,97285.43
2019-02-02T03:07:06.197Z,97292.47
2019-02-02T03:08:09.927Z,97289.64
2019-02-02T03:09:13.661Z,97279.68
2019-02-02T03:10:19.301Z,97282.34
2019-02-02T03:11:22.935Z,97277.33
2019-02-02T03:12:26.582Z,97280.96
2019-02-02T03:13:30.233Z,97276.77
2019-02-02T03:14:33.877Z,97279.34
2019-02-02T03:15:37.513Z,97278.66
2019-02-02T03:16:41.142Z,97279.17
2019-02-02T03:17:44.973Z,97277.15
2019-02-02T03:18:48.602Z,97281.63
2019-02-02T03:19:52.211Z,97279.72
2019-02-02T03:20:55.850Z,97284.85
2019-02-02T03:21:59.490Z,97289.39
2019-02-02T03:23:03.123Z,97289.98
2019-02-02T03:24:06.758Z,97290.52
2019-02-02T03:25:18.535Z,97297.72
2019-02-02T03:26:22.175Z,97295.88
2019-02-02T03:27:26.196Z,97295.69
2019-02-02T03:28:29.816Z,97299.77
2019-02-02T03:29:33.496Z,97295.61
2019-02-02T03:30:37.112Z,97301.38
2019-02-02T03:31:40.740Z,97297.55
2019-02-02T03:32:44.676Z,97294.61
2019-02-02T03:33:48.311Z,97295.66
2019-02-02T03:34:51.938Z,97294.23
2019-02-02T03:35:55.571Z,97296.05
2019-02-02T03:36:59.212Z,97299.31
2019-02-02T03:38:02.920Z,97296.39
2019-02-02T03:39:09.463Z,97292.45
2019-02-02T03:40:20.653Z,97292.48
2019-02-02T03:41:24.334Z,97295.97
2019-02-02T03:42:28.039Z,97293.17
2019-02-02T03:43:31.590Z,97301.38
2019-02-02T03:44:35.227Z,97303.25
2019-02-02T03:45:40.947Z,97305.32
2019-02-02T03:46:44.610Z,97308.83
2019-02-02T03:47:48.248Z,97306.81
2019-02-02T03:48:51.885Z,97312.06
2019-02-02T03:49:55.520Z,97310.42
2019-02-02T03:50:59.165Z,97311.80
2019-02-02T03:52:02.825Z,97314.86
2019-02-02T03:53:06.524Z,97308.30
2019-02-02T03:54:10.165Z,97315.63
2019-02-02T03:55:15.403Z,97310.30
2019-02-02T03:56:19.046Z,97320.19
2019-02-02T03:57:22.792Z,97319.91
2019-02-02T03:58:26.432Z,97324.47
2019-02-02T03:59:30.075Z,97319.45
2019-02-02T04:00:33.710Z,97316.37
2019-02-02T04:01:37.349Z,97318.47
2019-02-02T04:02:41.440Z,97320.25
2019-02-02T04:03:45.071Z,97319.73
2019-02-02T04:04:49.031Z,97320.53
2019-02-02T04:05:52.676Z,97312.26
2019-02-02T04:06:56.368Z,97307.05
2019-02-02T04:08:00.037Z,97310.13
2019-02-02T04:09:05.178Z,97301.95
2019-02-02T04:10:11.818Z,97316.70
2019-02-02T04:11:15.453Z,97309.57
2019-02-02T04:12:19.079Z,97313.73
2019-02-02T04:13:22.861Z,97314.45
2019-02-02T04:14:26.514Z,97309.95
2019-02-02T04:15:30.144Z,97311.80
2019-02-02T04:16:33.815Z,97314.11
2019-02-02T04:17:37.443Z,97317.75
2019-02-02T04:18:41.117Z,97315.49
2019-02-02T04:19:45.077Z,97317.55
2019-02-02T04:20:48.701Z,97320.47
2019-02-02T04:21:52.250Z,97316.59
2019-02-02T04:22:56.215Z,97318.94
2019-02-02T04:24:00.229Z,97321.03
2019-02-02T04:25:04.745Z,97316.82
2019-02-02T04:26:08.373Z,97310.94
2019-02-02T04:27:12.008Z,97316.82
2019-02-02T04:28:15.631Z,97312.20
2019-02-02T04:29:19.294Z,97313.80
2019-02-02T04:30:25.276Z,97316.82
2019-02-02T04:31:28.900Z,97321.04
2019-02-02T04:32:32.531Z,97322.05
2019-02-02T04:33:36.534Z,97322.27
2019-02-02T04:34:40.316Z,97318.77
2019-02-02T04:35:44.025Z,97317.54
2019-02-02T04:36:47.665Z,97327.38
2019-02-02T04:37:51.309Z,97321.00
2019-02-02T04:38:54.949Z,97326.73
2019-02-02T04:39:58.599Z,97316.52
2019-02-02T04:41:02.221Z,97334.66
2019-02-02T04:42:05.859Z,97331.43
2019-02-02T04:43:09.561Z,97334.29
2019-02-02T04:44:13.235Z,97333.81
2019-02-02T04:45:17.871Z,97330.70
2019-02-02T04:46:21.500Z,97332.03
2019-02-02T04:47:25.133Z,97332.06
2019-02-02T04:48:28.759Z,97326.64
2019-02-02T04:49:32.424Z,97333.05
2019-02-02T04:50:36.064Z,97333.81
2019-02-02T04:51:39.698Z,97325.12
2019-02-02T04:52:43.539Z,97324.39
2019-02-02T04:53:47.175Z,97329.56
2019-02-02T04:54:50.846Z,97336.28
2019-02-02T04:55:54.487Z,97342.03
2019-02-02T04:56:58.119Z,97330.31
2019-02-02T04:58:01.754Z,97346.45
2019-02-02T04:59:05.488Z,97341.86
2019-02-02T05:00:12.220Z,97345.05
2019-02-02T05:01:15.852Z,97340.89
2019-02-02T05:02:19.491Z,97341.58
2019-02-02T05:03:23.207Z,97346.91
2019-02-02T05:04:26.845Z,97336.80
2019-02-02T05:05:30.531Z,97342.74
2019-02-02T05:06:34.165Z,97338.02
2019-02-02T05:07:38.231Z,97342.63
2019-02-02T05:08:41.865Z,97342.66
2019-02-02T05:09:45.965Z,97335.00
2019-02-02T05:10:49.987Z,97334.92
2019-02-02T05:11:53.630Z,97333.79
2019-02-02T05:12:57.268Z,97340.76
2019-02-02T05:14:00.889Z,97341.33
2019-02-02T05:15:06.131Z,97342.34
2019-02-02T05:16:09.808Z,97344.50
2019-02-02T05:17:13.451Z,97342.99
2019-02-02T05:18:17.088Z,97342.17
2019-02-02T05:19:20.721Z,97340.33
2019-02-02T05:20:24.363Z,97341.00
2019-02-02T05:21:28.034Z,97342.59
2019-02-02T05:22:31.675Z,97344.46
2019-02-02T05:23:35.247Z,97343.75
2019-02-02T05:24:39.197Z,97341.65
2019-02-02T05:25:42.840Z,97343.75
2019-02-02T05:26:46.596Z,97341.65
2019-02-02T05:27:50.235Z,97343.49
2019-02-02T05:28:53.877Z,97342.59
2019-02-02T05:29:57.522Z,97344.12
2019-02-02T05:31:01.152Z,97344.58
2019-02-02T05:32:04.828Z,97350.70
2019-02-02T05:33:08.544Z,97353.16
2019-02-02T05:34:12.181Z,97352.19
2019-02-02T05:35:16.202Z,97357.18
2019-02-02T05:36:19.832Z,97358.97
2019-02-02T05:37:23.608Z,97365.28
2019-02-02T05:38:27.244Z,97366.05
2019-02-02T05:39:30.952Z,97368.80
2019-02-02T05:40:34.934Z,97367.80
2019-02-02T05:41:38.643Z,97369.88
2019-02-02T05:42:42.305Z,97365.06
2019-02-02T05:43:45.943Z,97372.17
2019-02-02T05:44:49.577Z,97369.38
2019-02-02T05:45:53.318Z,97374.25
2019-02-02T05:46:56.945Z,97375.44
2019-02-02T05:48:00.621Z,97373.28
2019-02-02T05:49:04.785Z,97375.22
2019-02-02T05:50:11.715Z,97374.16
2019-02-02T05:51:15.426Z,97370.99
2019-02-02T05:52:19.067Z,97381.88
2019-02-02T05:53:22.813Z,97375.86
2019-02-02T05:54:26.438Z,97381.19
2019-02-02T05:55:30.084Z,97376.30
2019-02-02T05:56:33.718Z,97379.83
2019-02-02T05:57:37.351Z,97373.38
2019-02-02T05:58:41.022Z,97372.72
2019-02-02T05:59:52.547Z,97377.52
2019-02-02T06:00:51.483Z,97370.20
2019-02-02T06:01:55.127Z,97372.30
2019-02-02T06:02:58.764Z,97374.33
2019-02-02T06:04:02.725Z,97380.59
2019-02-02T06:05:06.462Z,97374.19
2019-02-02T06:06:10.429Z,97377.87
2019-02-02T06:07:14.135Z,97385.89
2019-02-02T06:08:17.859Z,97378.09
2019-02-02T06:09:22.928Z,97381.52
2019-02-02T06:10:26.658Z,97380.94
2019-02-02T06:11:30.637Z,97380.08
2019-02-02T06:12:34.268Z,97382.84
2019-02-02T06:13:37.903Z,97381.12
2019-02-02T06:14:41.576Z,97385.59
2019-02-02T06:15:45.201Z,97384.39
2019-02-02T06:16:48.841Z,97392.20
2019-02-02T06:17:52.493Z,97396.96
2019-02-02T06:18:56.132Z,97395.89
2019-02-02T06:19:59.799Z,97395.98
2019-02-02T06:21:03.436Z,97398.73
2019-02-02T06:22:07.101Z,97394.27
2019-02-02T06:23:10.745Z,97404.38
2019-02-02T06:24:14.493Z,97405.41
2019-02-02T06:25:18.516Z,97397.88
2019-02-02T06:26:22.156Z,97392.52
2019-02-02T06:27:25.787Z,97394.52
2019-02-02T06:28:29.418Z,97395.75
2019-02-02T06:29:33.061Z,97389.09
2019-02-02T06:30:36.728Z,97390.33
2019-02-02T06:31:40.371Z,97381.69
2019-02-02T06:32:44.021Z,97383.16
2019-02-02T06:33:47.621Z,97385.50
2019-02-02T06:34:51.265Z,97383.66
2019-02-02T06:35:55.052Z,97373.91
2019-02-02T06:36:58.690Z,97384.99
2019-02-02T06:38:02.385Z,97379.66
2019-02-02T06:39:07.527Z,97379.92
2019-02-02T06:40:13.578Z,97380.65
2019-02-02T06:41:19.736Z,97388.64
2019-02-02T06:42:23.415Z,97383.06
2019-02-02T06:43:30.146Z,97380.45
2019-02-02T06:44:32.463Z,97388.08
2019-02-02T06:45:37.203Z,97385.95
2019-02-02T06:46:43.642Z,97383.83
2019-02-02T06:47:46.220Z,97392.30
2019-02-02T06:48:50.242Z,97395.47
2019-02-02T06:49:56.205Z,97394.23
2019-02-02T06:50:59.968Z,97399.38
2019-02-02T06:52:05.068Z,97402.73
2019-02-02T06:53:08.717Z,97406.89
2019-02-02T06:54:12.462Z,97406.64
2019-02-02T06:55:17.213Z,97411.88
2019-02-02T06:56:21.358Z,97410.70
2019-02-02T06:57:25.323Z,97403.05
2019-02-02T06:58:28.972Z,97409.11
2019-02-02T06:59:32.718Z,97409.52
2019-02-02T07:00:36.373Z,97403.09
2019-02-02T07:01:40.017Z,97407.83
2019-02-02T07:02:43.655Z,97407.63
2019-02-02T07:03:47.301Z,97412.38
2019-02-02T07:04:52.800Z,97407.91
2019-02-02T07:05:56.495Z,97406.22
2019-02-02T07:07:00.151Z,97410.08
2019-02-02T07:08:03.805Z,97408.31
2019-02-02T07:09:08.318Z,97411.84
2019-02-02T07:10:17.715Z,97412.64
2019-02-02T07:11:21.441Z,97407.23
2019-02-02T07:12:25.095Z,97406.83
2019-02-02T07:13:28.808Z,97407.72
2019-02-02T07:14:32.515Z,97410.16
2019-02-02T07:15:37.454Z,97401.31
2019-02-02T07:16:41.159Z,97402.53
2019-02-02T07:17:44.979Z,97400.41
2019-02-02T07:18:48.702Z,97393.56
2019-02-02T07:19:52.369Z,97390.89
2019-02-02T07:20:56.112Z,97384.94
2019-02-02T07:21:59.864Z,97387.98
2019-02-02T07:23:03.683Z,97386.52
2019-02-02T07:24:07.409Z,97382.55
2019-02-02T07:25:11.748Z,97385.09
2019-02-02T07:26:15.504Z,97382.30
2019-02-02T07:27:22.247Z,97376.16
2019-02-02T07:28:28.633Z,97368.17
2019-02-02T07:29:32.460Z,97367.00
2019-02-02T07:30:36.187Z,97368.21
2019-02-02T07:31:39.933Z,97362.64
2019-02-02T07:32:43.665Z,97368.41
2019-02-02T07:33:48.664Z,97371.79
2019-02-02T07:34:52.379Z,97367.39
2019-02-02T07:35:56.105Z,97370.62
2019-02-02T07:37:00.396Z,97377.74
2019-02-02T07:38:04.185Z,97376.27
2019-02-02T07:39:08.652Z,97375.23
2019-02-02T07:40:17.500Z,97379.27
2019-02-02T07:41:21.153Z,97378.30
2019-02-02T07:42:26.231Z,97377.80
2019-02-02T07:43:29.974Z,97369.48
2019-02-02T07:44:33.795Z,97369.48
2019-02-02T07:45:37.438Z,97371.63
2019-02-02T07:46:45.269Z,97366.90
2019-02-02T07:47:48.966Z,97368.59
2019-02-02T07:48:53.067Z,97377.88
2019-02-02T07:49:57.989Z,97377.88
2019-02-02T07:51:03.168Z,97371.59
2019-02-02T07:52:06.893Z,97367.59
2019-02-02T07:53:11.422Z,97367.83
2019-02-02T07:54:16.255Z,97364.45
2019-02-02T07:55:21.722Z,97364.45
2019-02-02T07:56:25.480Z,97361.23
2019-02-02T07:57:29.090Z,97361.03
2019-02-02T07:58:32.806Z,97362.13
2019-02-02T07:59:36.544Z,97354.53
2019-02-02T08:00:41.547Z,97354.53
2019-02-02T08:01:45.675Z,97355.06
2019-02-02T08:02:49.357Z,97360.01
2019-02-02T08:03:53.074Z,97352.08
2019-02-02T08:04:59.445Z,97352.08
2019-02-02T08:06:03.164Z,97343.02
2019-02-02T08:07:06.890Z,97337.81
2019-02-02T08:08:11.794Z,97335.52
2019-02-02T08:09:16.736Z,97334.84
2019-02-02T08:10:23.297Z,97334.84
2019-02-02T08:11:27.083Z,97324.38
2019-02-02T08:12:30.747Z,97331.15
2019-02-02T08:13:34.465Z,97333.22
2019-02-02T08:14:38.127Z,97329.67
2019-02-02T08:15:41.783Z,97329.67
2019-02-02T08:16:45.560Z,97328.17
2019-02-02T08:17:49.395Z,97328.17
2019-02-02T08:18:53.157Z,97313.91
2019-02-02T08:19:56.809Z,97311.98
2019-02-02T08:21:00.476Z,97328.72
2019-02-02T08:22:04.375Z,97317.15
2019-02-02T08:23:08.210Z,97319.64
2019-02-02T08:24:12.086Z,97319.64
2019-02-02T08:25:18.642Z,97324.80
2019-02-02T08:26:22.287Z,97324.44
2019-02-02T08:27:26.056Z,97332.09
2019-02-02T08:28:30.066Z,97322.53
2019-02-02T08:29:33.773Z,97319.41
2019-02-02T08:30:37.605Z,97325.45
2019-02-02T08:31:41.289Z,97315.88
2019-02-02T08:32:45.180Z,97315.88
2019-02-02T08:33:48.872Z,97326.80
2019-02-02T08:34:52.682Z,97317.83
2019-02-02T08:35:56.429Z,97322.33
2019-02-02T08:37:00.158Z,97319.17
2019-02-02T08:38:04.310Z,97315.59
2019-02-02T08:39:09.540Z,97334.33
2019-02-02T08:40:16.909Z,97337.80
2019-02-02T08:41:22.681Z,97331.18
2019-02-02T08:42:26.449Z,97333.77
2019-02-02T08:43:31.688Z,97337.02
2019-02-02T08:44:35.416Z,97333.74
2019-02-02T08:45:39.051Z,97339.13
2019-02-02T08:46:42.839Z,97335.09
2019-02-02T08:47:46.666Z,97337.78
2019-02-02T08:48:50.339Z,97336.39
2019-02-02T08:49:54.070Z,97338.27
2019-02-02T08:50:57.801Z,97333.81
2019-02-02T08:52:01.545Z,97330.79
2019-02-02T08:53:05.683Z,97333.46
2019-02-02T08:54:09.602Z,97332.09
2019-02-02T08:55:13.705Z,97333.73
2019-02-02T08:56:17.396Z,97322.81
2019-02-02T08:57:21.121Z,97323.36
2019-02-02T08:58:24.968Z,97330.49
2019-02-02T08:59:28.980Z,97328.83
2019-02-02T09:00:32.907Z,97328.44
2019-02-02T09:01:36.968Z,97331.69
2019-02-02T09:02:40.596Z,97330.20
2019-02-02T09:03:44.390Z,97330.02
2019-02-02T09:04:48.151Z,97336.45
2019-02-02T09:05:51.889Z,97339.77
2019-02-02T09:06:55.660Z,97335.19
2019-02-02T09:07:59.381Z,97332.80
2019-02-02T09:09:04.913Z,97337.65
2019-02-02T09:10:17.122Z,97332.61
2019-02-02T09:11:21.135Z,97331.91
2019-02-02T09:12:24.854Z,97332.45
2019-02-02T09:13:28.571Z,97333.70
2019-02-02T09:14:32.598Z,97327.03
2019-02-02T09:15:36.384Z,97326.73
2019-02-02T09:16:40.033Z,97325.16
2019-02-02T09:17:43.803Z,97331.14
2019-02-02T09:18:47.414Z,97330.27
2019-02-02T09:19:51.058Z,97331.64
2019-02-02T09:20:54.742Z,97332.92
2019-02-02T09:21:58.399Z,97334.65
2019-02-02T09:23:06.253Z,97333.14
2019-02-02T09:24:07.601Z,97322.64
2019-02-02T09:25:13.727Z,97327.86
2019-02-02T09:26:17.491Z,97329.72
2019-02-02T09:27:21.143Z,97326.91
2019-02-02T09:28:27.287Z,97335.39
2019-02-02T09:29:30.924Z,97319.08
2019-02-02T09:30:36.333Z,97336.62
2019-02-02T09:31:40.135Z,97332.13
2019-02-02T09:32:43.871Z,97327.94
2019-02-02T09:33:47.617Z,97332.22
2019-02-02T09:34:51.398Z,97331.17
2019-02-02T09:35:55.251Z,97331.17
2019-02-02T09:36:58.978Z,97330.55
2019-02-02T09:38:02.703Z,97316.16
2019-02-02T09:39:07.896Z,97310.95
2019-02-02T09:40:14.726Z,97306.52
2019-02-02T09:41:19.119Z,97308.86
2019-02-02T09:42:22.839Z,97305.53
2019-02-02T09:43:26.480Z,97311.69
2019-02-02T09:44:30.225Z,97311.81
2019-02-02T09:45:33.947Z,97313.77
2019-02-02T09:46:37.712Z,97306.73
2019-02-02T09:47:41.437Z,97304.70
2019-02-02T09:48:45.213Z,97314.52
2019-02-02T09:49:48.941Z,97301.59
2019-02-02T09:50:53.030Z,97303.34
2019-02-02T09:51:56.800Z,97307.27
2019-02-02T09:53:00.448Z,97305.32
2019-02-02T09:54:04.199Z,97300.52
2019-02-02T09:55:13.885Z,97298.06
2019-02-02T09:56:17.639Z,97300.11
2019-02-02T09:57:21.387Z,97297.24
2019-02-02T09:58:25.206Z,97287.99
2019-02-02T09:59:28.951Z,97293.74
2019-02-02T10:00:33.711Z,97299.81
2019-02-02T10:01:37.404Z,97292.71
2019-02-02T10:02:41.124Z,97300.31
2019-02-02T10:03:45.239Z,97295.74
2019-02-02T10:04:48.974Z,97294.07
2019-02-02T10:05:52.812Z,97292.61
2019-02-02T10:06:56.467Z,97290.61
2019-02-02T10:08:00.268Z,97286.25
2019-02-02T10:09:05.387Z,97289.36
2019-02-02T10:10:12.023Z,97289.78
2019-02-02T10:11:15.765Z,97287.18
2019-02-02T10:12:21.171Z,97285.32
2019-02-02T10:13:25.383Z,97284.53
2019-02-02T10:14:29.150Z,97278.09
2019-02-02T10:15:32.963Z,97275.61
2019-02-02T10:16:36.762Z,97278.72
2019-02-02T10:17:40.462Z,97280.13
2019-02-02T10:18:44.193Z,97290.20
2019-02-02T10:19:47.901Z,97279.45
2019-02-02T10:21:03.332Z,97284.69
2019-02-02T10:21:57.107Z,97277.24
2019-02-02T10:23:01.873Z,97283.01
2019-02-02T10:24:07.752Z,97274.60
2019-02-02T10:25:14.383Z,97271.21
2019-02-02T10:26:18.141Z,97271.98
2019-02-02T10:27:21.859Z,97274.17
2019-02-02T10:28:25.583Z,97279.23
2019-02-02T10:29:29.368Z,97270.41
2019-02-02T10:30:41.132Z,97264.77
2019-02-02T10:31:44.899Z,97265.56
2019-02-02T10:32:48.666Z,97269.12
2019-02-02T10:33:52.510Z,97269.35
2019-02-02T10:34:56.632Z,97262.36
2019-02-02T10:36:00.310Z,97256.34
2019-02-02T10:37:04.068Z,97261.71
2019-02-02T10:38:07.855Z,97255.03
2019-02-02T10:39:11.530Z,97259.52
2019-02-02T10:40:15.949Z,97256.70
2019-02-02T10:41:19.599Z,97248.27
2019-02-02T10:42:23.324Z,97252.45
2019-02-02T10:43:27.043Z,97249.27
2019-02-02T10:44:30.789Z,97247.25
2019-02-02T10:45:34.673Z,97245.15
2019-02-02T10:46:38.443Z,97248.41
2019-02-02T10:47:42.994Z,97246.00
2019-02-02T10:48:46.969Z,97234.63
2019-02-02T10:49:50.672Z,97237.79
2019-02-02T10:50:54.324Z,97232.63
2019-02-02T10:51:57.961Z,97231.27
2019-02-02T10:53:01.639Z,97238.05
2019-02-02T10:54:05.813Z,97229.04
2019-02-02T10:55:12.443Z,97231.20
2019-02-02T10:56:16.165Z,97225.88
2019-02-02T10:57:19.907Z,97229.00
2019-02-02T10:58:23.616Z,97226.08
2019-02-02T10:59:27.348Z,97231.18
2019-02-02T11:00:33.474Z,97231.20
2019-02-02T11:01:37.298Z,97233.59
2019-02-02T11:02:41.010Z,97228.53
2019-02-02T11:03:44.740Z,97229.53
2019-02-02T11:04:48.482Z,97233.73
2019-02-02T11:05:52.271Z,97234.13
2019-02-02T11:06:56.099Z,97223.70
2019-02-02T11:07:59.942Z,97230.14
2019-02-02T11:09:05.339Z,97224.14
2019-02-02T11:10:12.169Z,97227.12
2019-02-02T11:11:16.129Z,97218.98
2019-02-02T11:12:19.804Z,97212.93
2019-02-02T11:13:23.670Z,97216.86
2019-02-02T11:14:27.477Z,97224.52
2019-02-02T11:15:31.203Z,97220.40
2019-02-02T11:16:34.939Z,97220.62
2019-02-02T11:17:38.794Z,97231.45
2019-02-02T11:18:42.588Z,97221.44
2019-02-02T11:19:46.329Z,97223.27
2019-02-02T11:20:50.249Z,97228.23
2019-02-02T11:21:54.105Z,97214.92
2019-02-02T11:22:57.946Z,97215.52
2019-02-02T11:24:01.656Z,97217.41
2019-02-02T11:25:08.177Z,97216.28
2019-02-02T11:26:12.228Z,97230.16
2019-02-02T11:27:16.006Z,97219.66
2019-02-02T11:28:19.731Z,97213.96
2019-02-02T11:29:23.434Z,97213.88
2019-02-02T11:30:27.951Z,97220.15
2019-02-02T11:31:31.705Z,97221.72
2019-02-02T11:32:35.434Z,97215.16
2019-02-02T11:33:39.181Z,97211.89
2019-02-02T11:34:42.948Z,97221.94
2019-02-02T11:35:46.661Z,97224.14
2019-02-02T11:36:50.398Z,97217.98
2019-02-02T11:37:54.113Z,97203.75
2019-02-02T11:38:59.632Z,97201.95
2019-02-02T11:40:05.382Z,97206.14
2019-02-02T11:41:09.323Z,97195.07
2019-02-02T11:42:13.050Z,97200.05
2019-02-02T11:43:16.762Z,97204.11
2019-02-02T11:44:20.476Z,97208.75
2019-02-02T11:45:24.152Z,97203.77
2019-02-02T11:46:27.789Z,97208.48
2019-02-02T11:47:31.431Z,97200.38
2019-02-02T11:48:35.097Z,97210.32
2019-02-02T11:49:38.841Z,97212.45
2019-02-02T11:50:42.598Z,97209.63
2019-02-02T11:51:46.301Z,97214.66
2019-02-02T11:52:50.054Z,97202.72
2019-02-02T11:53:53.699Z,97204.39
2019-02-02T11:54:57.381Z,97195.65
2019-02-02T11:56:03.977Z,97188.67
2019-02-02T11:57:08.190Z,97188.67
2019-02-02T11:58:11.819Z,97180.00
2019-02-02T11:59:15.543Z,97186.41
2019-02-02T12:00:24.721Z,97189.67
2019-02-02T12:01:28.691Z,97194.64
2019-02-02T12:02:32.404Z,97187.03
2019-02-02T12:03:36.117Z,97173.50
2019-02-02T12:04:39.779Z,97184.58
2019-02-02T12:05:43.435Z,97186.84
2019-02-02T12:06:49.190Z,97186.69
2019-02-02T12:07:52.571Z,97183.73
2019-02-02T12:08:56.214Z,97183.61
2019-02-02T12:10:00.384Z,97183.27
2019-02-02T12:11:04.136Z,97183.61
2019-02-02T12:12:08.200Z,97183.61
2019-02-02T12:13:11.924Z,97186.63
2019-02-02T12:14:15.691Z,97191.12
2019-02-02T12:15:20.013Z,97183.97
2019-02-02T12:16:23.659Z,97189.52
2019-02-02T12:17:27.471Z,97172.39
2019-02-02T12:18:31.196Z,97172.39
2019-02-02T12:19:34.736Z,97176.73
2019-02-02T12:20:38.438Z,97179.70
2019-02-02T12:21:42.077Z,97189.37
2019-02-02T12:22:45.880Z,97180.14
2019-02-02T12:23:49.596Z,97183.26
2019-02-02T12:24:53.330Z,97180.95
2019-02-02T12:25:56.977Z,97183.72
2019-02-02T12:27:00.712Z,97179.21
2019-02-02T12:28:04.988Z,97176.14
2019-02-02T12:29:08.699Z,97171.83
2019-02-02T12:30:20.760Z,97172.76
2019-02-02T12:31:24.483Z,97174.11
2019-02-02T12:32:28.217Z,97169.84